Time;durP1;ratioP1;P1;durP2;ratioP2;P2;SDS_P1;SDS_P2;PMS_P1;PMS_P2;Temp;Humidity;BMP_temperature;BMP_pressure;BME280_temperature;BME280_humidity;BME280_pressure;Samples;Min_cycle;Max_cycle;Signal;HPM_P1;HPM_P2
2021/04/10 00:00:08;;;;;;;2.80;1.00;;;;;;;17.28;50.48;100814.34;489230;28;1278;-63
2021/04/10 00:00:22;;;;;;;2.70;1.00;;;;;;;17.21;50.67;100798.00;488637;28;19401;-63
2021/04/10 00:00:37;;;;;;;2.53;1.00;;;;;;;17.29;50.39;100813.31;489209;28;934;-63
2021/04/10 00:00:51;;;;;;;2.47;1.00;;;;;;;17.29;50.50;100805.22;489384;28;830;-63
2021/04/10 00:01:10;;;;;;;2.45;1.00;;;;;;;17.28;50.58;100812.50;489360;28;910;-63
2021/04/10 00:01:28;;;;;;;3.75;1.10;;;;;;;17.29;50.80;100813.31;487830;28;41612;-63
2021/04/10 00:01:43;;;;;;;3.92;1.02;;;;;;;17.29;51.19;100810.63;488486;28;19287;-63
2021/04/10 00:01:57;;;;;;;2.60;1.05;;;;;;;17.28;50.90;100809.78;489300;28;922;-63
2021/04/10 00:02:12;;;;;;;2.40;1.10;;;;;;;17.28;50.61;100808.94;489051;28;1020;-63
2021/04/10 00:02:27;;;;;;;3.00;1.10;;;;;;;17.29;50.85;100816.03;489039;28;954;-63
2021/04/10 00:02:41;;;;;;;2.90;1.20;;;;;;;17.28;50.74;100806.22;489083;28;936;-63
2021/04/10 00:02:56;;;;;;;2.40;1.20;;;;;;;17.28;50.64;100811.66;489270;28;1005;-63
2021/04/10 00:03:11;;;;;;;2.57;1.10;;;;;;;17.28;50.81;100817.91;488657;28;922;-64
2021/04/10 00:03:25;;;;;;;2.10;1.05;;;;;;;17.29;50.75;100814.16;488952;28;1131;-63
2021/04/10 00:03:40;;;;;;;1.67;0.93;;;;;;;17.30;50.64;100813.16;489008;28;1017;-63
2021/04/10 00:03:54;;;;;;;2.20;0.90;;;;;;;17.29;50.58;100808.75;489069;28;1918;-63
2021/04/10 00:04:12;;;;;;;2.77;1.10;;;;;;;17.28;50.53;100807.06;489323;28;866;-63
2021/04/10 00:04:26;;;;;;;1.95;0.98;;;;;;;17.28;50.48;100808.94;487019;28;18811;-63
2021/04/10 00:04:41;;;;;;;2.17;0.90;;;;;;;17.28;50.52;100809.78;488032;28;997;-63
2021/04/10 00:04:55;;;;;;;2.37;1.00;;;;;;;17.30;50.66;100813.16;489249;28;870;-63
2021/04/10 00:05:10;;;;;;;2.20;1.08;;;;;;;17.29;50.82;100813.31;489131;28;1274;-63
2021/04/10 00:05:26;;;;;;;2.58;1.05;;;;;;;17.29;50.55;100805.22;489226;28;1360;-63
2021/04/10 00:05:40;;;;;;;3.03;1.08;;;;;;;17.27;50.55;100815.38;487284;28;1021;-63
2021/04/10 00:05:55;;;;;;;3.03;1.17;;;;;;;17.29;50.77;100816.03;487440;28;873;-63
2021/04/10 00:06:10;;;;;;;2.73;1.10;;;;;;;17.28;50.75;100812.50;487066;28;936;-63
2021/04/10 00:06:24;;;;;;;2.65;1.10;;;;;;;17.29;50.87;100813.31;488781;28;1012;-64
2021/04/10 00:06:40;;;;;;;2.75;1.20;;;;;;;17.30;50.59;100815.00;489257;28;810;-63
2021/04/10 00:06:55;;;;;;;2.83;1.20;;;;;;;17.30;50.45;100815.84;487284;28;2041;-63
2021/04/10 00:07:09;;;;;;;2.70;1.10;;;;;;;17.30;50.73;100818.56;488289;28;881;-63
2021/04/10 00:07:23;;;;;;;2.17;1.10;;;;;;;17.29;50.81;100811.47;489282;28;1047;-63
2021/04/10 00:07:38;;;;;;;2.00;1.20;;;;;;;17.30;50.63;100809.59;489363;28;810;-63
2021/04/10 00:07:52;;;;;;;2.20;1.20;;;;;;;17.29;50.90;100808.75;489162;28;1000;-63
2021/04/10 00:08:07;;;;;;;2.30;1.10;;;;;;;17.31;50.81;100819.41;487311;28;1598;-64
2021/04/10 00:08:21;;;;;;;2.65;1.20;;;;;;;17.29;50.70;100813.31;487237;28;1167;-64
2021/04/10 00:08:36;;;;;;;2.73;1.13;;;;;;;17.29;50.80;100811.47;489281;28;862;-63
2021/04/10 00:08:50;;;;;;;2.65;1.10;;;;;;;17.30;50.80;100813.16;489215;28;929;-63
2021/04/10 00:09:06;;;;;;;2.60;1.10;;;;;;;17.29;50.69;100810.63;489439;28;1023;-63
2021/04/10 00:09:20;;;;;;;2.28;1.02;;;;;;;17.30;50.48;100815.00;486873;28;1153;-63
2021/04/10 00:09:34;;;;;;;3.20;1.13;;;;;;;17.29;50.87;100811.47;487884;28;981;-63
2021/04/10 00:09:49;;;;;;;3.03;1.20;;;;;;;17.28;51.14;100809.78;489237;28;901;-63
2021/04/10 00:10:06;;;;;;;2.03;1.17;;;;;;;17.28;51.19;100814.34;489029;28;1699;-63
2021/04/10 00:10:23;;;;;;;2.70;1.20;;;;;;;17.27;51.13;100813.50;487312;28;869;-63
2021/04/10 00:10:37;;;;;;;2.70;1.10;;;;;;;17.29;50.59;100813.31;486793;28;1049;-63
2021/04/10 00:10:52;;;;;;;2.67;1.05;;;;;;;17.30;50.67;100809.59;487214;28;894;-63
2021/04/10 00:11:07;;;;;;;2.87;1.10;;;;;;;17.29;50.68;100810.63;487276;28;834;-63
2021/04/10 00:11:21;;;;;;;2.83;1.10;;;;;;;17.29;50.66;100816.03;488898;28;901;-63
2021/04/10 00:11:36;;;;;;;2.50;1.10;;;;;;;17.30;50.53;100812.31;489208;28;945;-63
2021/04/10 00:11:51;;;;;;;1.98;1.10;;;;;;;17.30;50.85;100810.44;488964;28;1085;-63
2021/04/10 00:12:06;;;;;;;2.08;1.10;;;;;;;17.30;50.82;100809.59;489280;28;1033;-63
2021/04/10 00:12:20;;;;;;;2.90;1.23;;;;;;;17.28;50.54;100807.06;489317;28;831;-63
2021/04/10 00:12:35;;;;;;;3.35;1.30;;;;;;;17.29;50.70;100807.91;489162;28;834;-63
2021/04/10 00:12:49;;;;;;;2.87;1.20;;;;;;;17.29;50.68;100813.31;489224;28;924;-63
2021/04/10 00:13:03;;;;;;;2.90;1.17;;;;;;;17.30;50.93;100812.31;489416;28;861;-64
2021/04/10 00:13:18;;;;;;;2.50;1.20;;;;;;;17.29;50.68;100814.16;489305;28;836;-63
2021/04/10 00:13:33;;;;;;;2.47;1.20;;;;;;;17.28;50.72;100815.19;489153;28;1199;-63
2021/04/10 00:13:47;;;;;;;2.53;1.10;;;;;;;17.30;50.57;100818.56;489200;28;929;-63
2021/04/10 00:14:06;;;;;;;2.97;1.08;;;;;;;17.31;50.63;100811.28;489302;28;893;-63
2021/04/10 00:14:21;;;;;;;2.70;1.10;;;;;;;17.31;50.58;100816.69;487922;28;41341;-63
2021/04/10 00:14:35;;;;;;;2.33;1.07;;;;;;;17.31;50.64;100816.69;489152;28;1227;-63
2021/04/10 00:14:50;;;;;;;2.50;1.00;;;;;;;17.29;50.61;100811.47;489221;28;770;-63
2021/04/10 00:15:07;;;;;;;3.20;1.10;;;;;;;17.30;51.00;100815.00;489327;28;932;-63
2021/04/10 00:15:22;;;;;;;3.40;1.15;;;;;;;17.30;50.88;100818.56;489073;28;1328;-63
2021/04/10 00:15:37;;;;;;;3.88;1.20;;;;;;;17.30;50.91;100812.31;489279;28;1033;-63
2021/04/10 00:15:51;;;;;;;4.40;1.30;;;;;;;17.29;51.04;100811.47;489380;28;956;-63
2021/04/10 00:16:06;;;;;;;3.73;1.17;;;;;;;17.29;51.05;100814.16;489171;28;806;-63
2021/04/10 00:16:20;;;;;;;2.75;1.15;;;;;;;17.29;50.70;100816.88;487328;28;880;-63
2021/04/10 00:16:35;;;;;;;2.13;1.13;;;;;;;17.28;50.92;100814.34;487322;28;901;-63
2021/04/10 00:16:50;;;;;;;2.58;1.17;;;;;;;17.28;50.76;100817.06;487428;28;921;-63
2021/04/10 00:17:05;;;;;;;3.42;1.30;;;;;;;17.29;50.48;100811.47;489004;28;1203;-63
2021/04/10 00:17:19;;;;;;;2.77;1.10;;;;;;;17.28;50.76;100819.75;489340;28;972;-63
2021/04/10 00:17:34;;;;;;;2.85;1.02;;;;;;;17.26;51.05;100810.97;489247;28;818;-64
2021/04/10 00:17:48;;;;;;;3.17;1.10;;;;;;;17.27;50.90;100813.50;489045;28;818;-64
2021/04/10 00:18:03;;;;;;;2.13;1.00;;;;;;;17.27;50.73;100821.63;488895;28;1114;-63
2021/04/10 00:18:17;;;;;;;2.60;1.20;;;;;;;17.28;50.41;100819.75;489212;28;1095;-63
2021/04/10 00:18:32;;;;;;;3.20;1.40;;;;;;;17.28;50.94;100817.06;489251;28;859;-63
2021/04/10 00:18:46;;;;;;;2.70;1.20;;;;;;;17.28;50.71;100808.94;489096;28;1067;-64
2021/04/10 00:19:00;;;;;;;2.97;1.30;;;;;;;17.28;50.75;100814.34;489348;28;937;-63
2021/04/10 00:19:15;;;;;;;3.28;1.50;;;;;;;17.28;50.63;100808.94;489378;28;898;-63
2021/04/10 00:19:29;;;;;;;3.87;1.40;;;;;;;17.29;50.70;100810.63;489217;28;860;-63
2021/04/10 00:19:44;;;;;;;3.33;1.30;;;;;;;17.30;50.89;100815.00;489293;28;897;-63
2021/04/10 00:19:58;;;;;;;2.67;1.30;;;;;;;17.30;50.66;100813.16;489046;28;974;-63
2021/04/10 00:20:17;;;;;;;2.72;1.20;;;;;;;17.31;50.60;100808.59;489264;28;798;-63
2021/04/10 00:20:31;;;;;;;2.33;1.00;;;;;;;17.31;50.52;100812.13;486707;28;19091;-63
2021/04/10 00:20:45;;;;;;;2.15;1.10;;;;;;;17.30;51.03;100815.00;487346;28;898;-63
2021/04/10 00:21:00;;;;;;;2.20;1.20;;;;;;;17.30;50.60;100804.19;487324;28;827;-63
2021/04/10 00:21:14;;;;;;;2.33;1.20;;;;;;;17.30;50.59;100810.44;489204;28;948;-64
2021/04/10 00:21:29;;;;;;;2.60;1.33;;;;;;;17.31;50.77;100811.28;489350;28;848;-64
2021/04/10 00:21:43;;;;;;;3.03;1.40;;;;;;;17.29;50.81;100808.75;489369;28;1035;-63
2021/04/10 00:21:58;;;;;;;3.17;1.33;;;;;;;17.29;50.81;100816.88;489007;28;1053;-63
2021/04/10 00:22:12;;;;;;;3.05;1.30;;;;;;;17.29;50.81;100810.63;489088;28;877;-64
2021/04/10 00:22:27;;;;;;;2.60;1.23;;;;;;;17.29;51.00;100816.88;488951;28;842;-63
2021/04/10 00:22:42;;;;;;;2.63;1.30;;;;;;;17.29;51.13;100810.63;489020;28;918;-63
2021/04/10 00:22:56;;;;;;;3.08;1.30;;;;;;;17.29;50.98;100810.63;489212;28;945;-63
2021/04/10 00:23:11;;;;;;;2.80;1.30;;;;;;;17.28;50.58;100811.66;489160;28;978;-64
2021/04/10 00:23:25;;;;;;;2.15;1.20;;;;;;;17.26;50.88;100806.41;486187;28;1149;-63
2021/04/10 00:23:44;;;;;;;2.70;1.27;;;;;;;17.28;50.88;100809.78;488849;28;1120;-64
2021/04/10 00:23:58;;;;;;;3.47;1.45;;;;;;;17.28;51.01;100807.06;487616;28;42844;-63
2021/04/10 00:24:13;;;;;;;3.20;1.40;;;;;;;17.28;50.84;100807.06;487459;28;1140;-63
2021/04/10 00:24:28;;;;;;;2.88;1.40;;;;;;;17.26;50.90;100810.97;486564;28;1021;-63
2021/04/10 00:24:42;;;;;;;2.80;1.27;;;;;;;17.27;51.11;100813.50;486464;28;1122;-63
2021/04/10 00:24:56;;;;;;;2.47;1.20;;;;;;;17.26;50.87;100806.41;487435;28;894;-63
2021/04/10 00:25:12;;;;;;;1.92;1.10;;;;;;;17.28;51.15;100811.66;487877;28;961;-63
2021/04/10 00:25:26;;;;;;;1.83;1.30;;;;;;;17.27;50.93;100812.66;488511;28;933;-63
2021/04/10 00:25:41;;;;;;;2.50;1.40;;;;;;;17.26;50.97;100808.28;489307;28;814;-63
2021/04/10 00:25:55;;;;;;;2.72;1.30;;;;;;;17.26;51.06;100809.13;489340;28;952;-63
2021/04/10 00:26:13;;;;;;;2.40;1.20;;;;;;;17.27;51.22;100804.56;489115;28;893;-63
2021/04/10 00:26:28;;;;;;;2.45;1.20;;;;;;;17.28;51.25;100808.94;487737;28;44205;-63
2021/04/10 00:26:42;;;;;;;2.77;1.17;;;;;;;17.27;51.38;100807.25;489272;28;864;-63
2021/04/10 00:26:57;;;;;;;2.85;1.10;;;;;;;17.28;50.62;100806.22;489252;28;971;-63
2021/04/10 00:27:11;;;;;;;3.33;1.30;;;;;;;17.28;50.92;100808.94;489138;28;1171;-63
2021/04/10 00:27:25;;;;;;;3.47;1.40;;;;;;;17.30;50.83;100806.91;489324;28;926;-63
2021/04/10 00:27:40;;;;;;;2.27;1.20;;;;;;;17.27;50.99;100799.97;489189;28;930;-63
2021/04/10 00:27:55;;;;;;;2.58;1.13;;;;;;;17.28;50.96;100811.66;489277;28;940;-63
2021/04/10 00:28:10;;;;;;;2.80;1.20;;;;;;;17.27;50.97;100805.41;488348;28;954;-63
2021/04/10 00:28:24;;;;;;;2.40;1.30;;;;;;;17.27;51.07;100805.41;487411;28;1219;-64
2021/04/10 00:28:39;;;;;;;2.10;1.20;;;;;;;17.29;50.87;100810.63;489212;28;1163;-63
2021/04/10 00:28:54;;;;;;;1.80;1.20;;;;;;;17.29;50.89;100802.50;489203;28;1040;-63
2021/04/10 00:29:08;;;;;;;2.33;1.40;;;;;;;17.28;50.96;100806.22;489239;28;946;-63
2021/04/10 00:29:22;;;;;;;2.73;1.60;;;;;;;17.28;51.17;100801.66;489277;28;1061;-63
2021/04/10 00:29:37;;;;;;;2.83;1.53;;;;;;;17.29;50.87;100803.34;489254;28;829;-63
2021/04/10 00:29:51;;;;;;;3.13;1.40;;;;;;;17.29;50.94;100802.50;489307;28;1004;-63
2021/04/10 00:30:08;;;;;;;3.27;1.37;;;;;;;17.27;51.13;100808.09;489212;28;816;-63
2021/04/10 00:30:23;;;;;;;2.38;1.20;;;;;;;17.29;51.03;100805.22;489242;28;1148;-63
2021/04/10 00:30:37;;;;;;;3.85;1.30;;;;;;;17.27;50.80;100801.84;488942;28;1155;-63
2021/04/10 00:31:06;;;;;;;4.30;1.33;;;;;;;17.28;51.06;100807.06;489276;28;972;-63
2021/04/10 00:31:20;;;;;;;2.80;1.30;;;;;;;17.28;50.94;100801.66;485102;28;66436;-63
2021/04/10 00:31:34;;;;;;;3.00;1.33;;;;;;;17.28;50.84;100806.22;487344;28;874;-63
2021/04/10 00:31:49;;;;;;;2.40;1.30;;;;;;;17.27;50.81;100808.09;488522;28;918;-63
2021/04/10 00:32:03;;;;;;;2.27;1.30;;;;;;;17.28;51.12;100811.66;489303;28;933;-63
2021/04/10 00:32:18;;;;;;;2.15;1.23;;;;;;;17.28;50.78;100803.53;489118;28;1171;-63
2021/04/10 00:32:32;;;;;;;2.57;1.20;;;;;;;17.28;50.78;100812.50;487453;28;884;-63
2021/04/10 00:32:47;;;;;;;2.67;1.20;;;;;;;17.29;50.97;100807.91;488871;28;830;-63
2021/04/10 00:33:01;;;;;;;2.10;1.20;;;;;;;17.29;51.05;100805.22;489255;28;787;-63
2021/04/10 00:33:16;;;;;;;2.88;1.30;;;;;;;17.30;51.04;100806.91;489274;28;855;-63
2021/04/10 00:33:30;;;;;;;3.00;1.20;;;;;;;17.29;50.82;100807.91;489140;28;905;-64
2021/04/10 00:33:46;;;;;;;2.20;1.20;;;;;;;17.28;50.99;100807.06;489405;28;830;-65
2021/04/10 00:34:00;;;;;;;2.10;1.30;;;;;;;17.29;50.78;100808.75;488941;28;1218;-63
2021/04/10 00:34:15;;;;;;;2.00;1.30;;;;;;;17.29;50.57;100810.63;489155;28;894;-63
2021/04/10 00:34:29;;;;;;;2.10;1.30;;;;;;;17.29;50.94;100799.81;489031;28;1048;-63
2021/04/10 00:34:43;;;;;;;2.33;1.38;;;;;;;17.27;51.42;100805.41;489131;28;914;-63
2021/04/10 00:34:58;;;;;;;3.03;1.40;;;;;;;17.27;51.10;100804.56;488987;28;973;-63
2021/04/10 00:35:13;;;;;;;2.80;1.30;;;;;;;17.28;51.10;100806.22;489138;28;806;-62
2021/04/10 00:35:28;;;;;;;2.22;1.30;;;;;;;17.25;51.13;100802.03;489214;28;854;-63
2021/04/10 00:35:43;;;;;;;2.67;1.30;;;;;;;17.27;51.00;100805.41;489038;28;1230;-63
2021/04/10 00:35:57;;;;;;;2.63;1.40;;;;;;;17.26;51.13;100809.13;489210;28;894;-63
2021/04/10 00:36:12;;;;;;;2.53;1.40;;;;;;;17.26;51.00;100811.81;489223;28;985;-63
2021/04/10 00:36:26;;;;;;;2.53;1.30;;;;;;;17.26;51.11;100806.41;487039;28;914;-63
2021/04/10 00:36:40;;;;;;;2.80;1.40;;;;;;;17.27;51.15;100804.56;487949;28;922;-63
2021/04/10 00:36:55;;;;;;;3.93;1.50;;;;;;;17.27;50.92;100807.25;489233;28;788;-63
2021/04/10 00:37:09;;;;;;;3.90;1.40;;;;;;;17.27;50.62;100808.09;489290;28;814;-63
2021/04/10 00:37:23;;;;;;;3.00;1.40;;;;;;;17.28;51.05;100809.78;488741;28;1110;-62
2021/04/10 00:37:38;;;;;;;3.37;1.40;;;;;;;17.28;50.92;100809.78;489191;28;933;-63
2021/04/10 00:37:53;;;;;;;4.13;1.40;;;;;;;17.28;51.15;100800.81;489302;28;1044;-63
2021/04/10 00:38:07;;;;;;;3.45;1.33;;;;;;;17.28;50.87;100801.66;489342;28;870;-63
2021/04/10 00:38:22;;;;;;;2.10;1.20;;;;;;;17.29;51.13;100807.91;489181;28;800;-63
2021/04/10 00:38:38;;;;;;;1.63;1.17;;;;;;;17.27;51.25;100805.41;489264;28;866;-63
2021/04/10 00:38:52;;;;;;;2.03;1.25;;;;;;;17.29;50.99;100810.63;489387;28;945;-63
2021/04/10 00:39:06;;;;;;;2.03;1.20;;;;;;;17.27;51.03;100809.97;488878;28;1250;-63
2021/04/10 00:39:21;;;;;;;2.63;1.17;;;;;;;17.28;51.00;100808.94;489279;28;815;-63
2021/04/10 00:39:35;;;;;;;4.00;1.27;;;;;;;17.25;50.96;100812.84;489294;28;914;-62
2021/04/10 00:39:50;;;;;;;4.20;1.30;;;;;;;17.28;50.86;100806.22;489332;28;993;-63
2021/04/10 00:40:09;;;;;;;3.15;1.30;;;;;;;17.29;50.40;100807.91;488936;28;1056;-63
2021/04/10 00:40:23;;;;;;;2.67;1.27;;;;;;;17.27;50.75;100810.81;487780;28;42759;-62
2021/04/10 00:40:38;;;;;;;2.78;1.30;;;;;;;17.28;51.15;100811.66;489254;28;798;-63
2021/04/10 00:40:52;;;;;;;3.53;1.40;;;;;;;17.28;51.33;100806.22;489146;28;1306;-63
2021/04/10 00:41:08;;;;;;;3.63;1.30;;;;;;;17.30;50.92;100813.16;489197;28;807;-62
2021/04/10 00:41:22;;;;;;;3.00;1.30;;;;;;;17.28;50.78;100808.94;489250;28;926;-62
2021/04/10 00:41:37;;;;;;;2.78;1.38;;;;;;;17.29;50.76;100810.63;489235;28;981;-62
2021/04/10 00:41:51;;;;;;;2.83;1.30;;;;;;;17.28;50.98;100808.94;489300;28;890;-64
2021/04/10 00:42:06;;;;;;;3.00;1.20;;;;;;;17.28;50.90;100811.66;489279;28;882;-63
2021/04/10 00:42:20;;;;;;;3.28;1.33;;;;;;;17.28;51.27;100814.34;489169;28;1091;-63
2021/04/10 00:42:36;;;;;;;2.55;1.30;;;;;;;17.26;51.10;100802.88;488960;28;1041;-63
2021/04/10 00:42:50;;;;;;;2.25;1.20;;;;;;;17.27;50.95;100810.81;489369;28;885;-63
2021/04/10 00:43:04;;;;;;;2.63;1.20;;;;;;;17.27;50.90;100810.81;489327;28;861;-63
2021/04/10 00:43:19;;;;;;;2.40;1.37;;;;;;;17.28;50.92;100807.06;489075;28;913;-62
2021/04/10 00:43:33;;;;;;;1.85;1.25;;;;;;;17.28;51.50;100807.06;489362;28;823;-63
2021/04/10 00:43:48;;;;;;;2.33;1.17;;;;;;;17.28;51.39;100808.94;489308;28;827;-63
2021/04/10 00:44:02;;;;;;;2.78;1.38;;;;;;;17.26;51.48;100813.69;489193;28;1914;-63
2021/04/10 00:44:17;;;;;;;2.63;1.50;;;;;;;17.27;51.02;100812.66;489111;28;1345;-63
2021/04/10 00:44:31;;;;;;;2.40;1.30;;;;;;;17.25;51.67;100815.56;489106;28;1096;-63
2021/04/10 00:44:46;;;;;;;2.70;1.27;;;;;;;17.24;51.39;100805.75;489350;28;834;-63
2021/04/10 00:45:00;;;;;;;2.80;1.30;;;;;;;17.24;51.55;100811.16;489238;28;811;-63
2021/04/10 00:45:14;;;;;;;3.00;1.30;;;;;;;17.25;51.12;100814.72;489206;28;913;-62
2021/04/10 00:45:29;;;;;;;2.67;1.40;;;;;;;17.25;51.22;100807.44;489305;28;850;-62
2021/04/10 00:45:43;;;;;;;2.78;1.30;;;;;;;17.26;51.31;100806.41;489208;28;871;-62
2021/04/10 00:45:57;;;;;;;2.53;1.20;;;;;;;17.24;51.23;100805.75;489140;28;1183;-63
2021/04/10 00:46:12;;;;;;;2.40;1.20;;;;;;;17.25;51.30;100803.88;489292;28;838;-63
2021/04/10 00:46:26;;;;;;;2.73;1.30;;;;;;;17.26;51.48;100811.81;487131;28;1164;-63
2021/04/10 00:46:40;;;;;;;2.90;1.30;;;;;;;17.25;51.44;100802.03;489095;28;1022;-63
2021/04/10 00:46:55;;;;;;;2.72;1.20;;;;;;;17.25;51.44;100801.19;489292;28;886;-62
2021/04/10 00:47:09;;;;;;;2.37;1.20;;;;;;;17.24;51.60;100803.03;489310;28;973;-62
2021/04/10 00:47:24;;;;;;;2.28;1.20;;;;;;;17.24;51.60;100815.72;489041;28;981;-62
2021/04/10 00:47:38;;;;;;;2.33;1.23;;;;;;;17.25;51.69;100809.28;489081;28;823;-63
2021/04/10 00:47:52;;;;;;;2.90;1.30;;;;;;;17.24;51.71;100813.03;489359;28;870;-63
2021/04/10 00:48:07;;;;;;;3.15;1.40;;;;;;;17.25;51.31;100806.59;488980;28;1285;-62
2021/04/10 00:48:22;;;;;;;2.43;1.33;;;;;;;17.23;51.61;100812.19;489283;28;1060;-64
2021/04/10 00:48:36;;;;;;;2.65;1.25;;;;;;;17.25;51.46;100809.28;489139;28;1021;-65
2021/04/10 00:48:50;;;;;;;2.65;1.25;;;;;;;17.25;51.15;100812.84;489362;28;1232;-64
2021/04/10 00:49:05;;;;;;;2.07;1.27;;;;;;;17.24;51.08;100808.44;489193;28;914;-63
2021/04/10 00:49:19;;;;;;;2.73;1.20;;;;;;;17.26;50.99;100808.28;489270;28;973;-62
2021/04/10 00:49:34;;;;;;;3.60;1.30;;;;;;;17.26;50.90;100805.56;489128;28;906;-63
2021/04/10 00:49:48;;;;;;;3.33;1.37;;;;;;;17.26;51.24;100809.13;489092;28;1297;-62
2021/04/10 00:50:04;;;;;;;2.47;1.20;;;;;;;17.26;50.88;100809.13;489157;28;811;-62
2021/04/10 00:50:19;;;;;;;2.10;1.25;;;;;;;17.26;51.06;100808.28;489263;28;1033;-62
2021/04/10 00:50:33;;;;;;;1.90;1.20;;;;;;;17.25;51.40;100806.59;489156;28;925;-62
2021/04/10 00:50:49;;;;;;;2.47;1.20;;;;;;;17.25;51.17;100812.00;489332;28;873;-64
2021/04/10 00:51:05;;;;;;;3.15;1.30;;;;;;;17.24;51.05;100813.88;489344;28;842;-63
2021/04/10 00:51:19;;;;;;;2.67;1.35;;;;;;;17.25;51.32;100818.25;489268;28;866;-62
2021/04/10 00:51:34;;;;;;;2.42;1.27;;;;;;;17.25;51.30;100815.56;488919;28;1275;-62
2021/04/10 00:51:49;;;;;;;2.35;1.23;;;;;;;17.24;51.20;100811.16;489340;28;945;-62
2021/04/10 00:52:05;;;;;;;2.10;1.23;;;;;;;17.24;51.19;100813.03;489302;28;925;-63
2021/04/10 00:52:20;;;;;;;3.05;1.42;;;;;;;17.26;50.90;100808.28;489216;28;921;-62
2021/04/10 00:52:36;;;;;;;3.60;1.50;;;;;;;17.26;50.98;100814.53;489190;28;878;-63
2021/04/10 00:52:50;;;;;;;3.35;1.40;;;;;;;17.26;50.99;100810.97;489269;28;1008;-62
2021/04/10 00:53:05;;;;;;;2.97;1.40;;;;;;;17.25;50.99;100815.56;489070;28;1088;-62
2021/04/10 00:53:24;;;;;;;2.78;1.40;;;;;;;17.26;51.37;100813.69;489240;28;894;-62
2021/04/10 00:53:41;;;;;;;2.08;1.30;;;;;;;17.24;51.29;100813.88;487747;28;43297;-63
2021/04/10 00:53:55;;;;;;;2.40;1.20;;;;;;;17.24;51.28;100816.56;489178;28;949;-63
2021/04/10 00:54:10;;;;;;;2.90;1.23;;;;;;;17.24;51.41;100807.63;489319;28;926;-63
2021/04/10 00:54:24;;;;;;;3.35;1.30;;;;;;;17.25;51.15;100814.72;489332;28;1258;-62
2021/04/10 00:54:39;;;;;;;3.03;1.20;;;;;;;17.24;51.48;100815.72;489076;28;1143;-63
2021/04/10 00:54:54;;;;;;;1.77;1.10;;;;;;;17.24;51.31;100811.16;488721;28;1087;-63
2021/04/10 00:55:11;;;;;;;2.03;1.20;;;;;;;17.23;51.21;100816.75;489298;28;787;-62
2021/04/10 00:55:26;;;;;;;2.63;1.27;;;;;;;17.25;50.98;100815.56;489272;28;819;-62
2021/04/10 00:55:43;;;;;;;2.83;1.30;;;;;;;17.25;51.35;100812.84;489148;28;835;-62
2021/04/10 00:56:02;;;;;;;2.10;1.30;;;;;;;17.25;51.32;100814.72;488647;28;19059;-63
2021/04/10 00:56:17;;;;;;;3.47;1.25;;;;;;;17.25;51.15;100812.84;487768;28;41726;-62
2021/04/10 00:56:31;;;;;;;3.70;1.30;;;;;;;17.25;51.22;100812.84;488578;28;942;-64
2021/04/10 00:56:46;;;;;;;2.30;1.30;;;;;;;17.24;51.31;100807.63;489348;28;1008;-63
2021/04/10 00:57:00;;;;;;;2.73;1.20;;;;;;;17.25;51.37;100818.25;489274;28;910;-63
2021/04/10 00:57:15;;;;;;;3.53;1.27;;;;;;;17.26;51.00;100810.97;489179;28;921;-63
2021/04/10 00:57:30;;;;;;;3.50;1.20;;;;;;;17.26;50.95;100806.41;489245;28;877;-62
2021/04/10 00:57:44;;;;;;;2.00;1.17;;;;;;;17.27;51.06;100813.50;489255;28;1124;-62
2021/04/10 00:57:59;;;;;;;1.80;1.20;;;;;;;17.27;51.05;100812.66;489166;28;882;-62
2021/04/10 00:58:14;;;;;;;2.33;1.20;;;;;;;17.25;51.24;100812.00;489102;28;1207;-62
2021/04/10 00:58:28;;;;;;;2.22;1.25;;;;;;;17.24;51.48;100811.16;489180;28;924;-62
2021/04/10 00:58:43;;;;;;;2.40;1.30;;;;;;;17.24;51.09;100810.31;489252;28;874;-62
2021/04/10 00:58:57;;;;;;;2.65;1.30;;;;;;;17.24;51.25;100815.72;489200;28;922;-63
2021/04/10 00:59:12;;;;;;;1.87;1.10;;;;;;;17.24;51.44;100811.16;489264;28;893;-63
2021/04/10 00:59:27;;;;;;;1.63;1.10;;;;;;;17.24;51.28;100810.31;489214;28;966;-64
2021/04/10 00:59:41;;;;;;;2.00;1.20;;;;;;;17.20;50.91;100798.16;489183;28;1092;-64
2021/04/10 00:59:56;;;;;;;1.80;1.20;;;;;;;17.25;51.40;100807.44;489083;28;1202;-65
2021/04/10 01:00:10;;;;;;;2.33;1.20;;;;;;;17.23;51.52;100809.47;489247;28;901;-65
2021/04/10 01:00:25;;;;;;;2.80;1.30;;;;;;;17.24;51.25;100808.44;489147;28;1009;-64
2021/04/10 01:00:40;;;;;;;2.55;1.40;;;;;;;17.24;51.54;100810.31;487222;28;820;-65
2021/04/10 01:00:54;;;;;;;2.38;1.30;;;;;;;17.24;51.47;100807.63;487367;28;930;-64
2021/04/10 01:01:08;;;;;;;2.47;1.20;;;;;;;17.24;51.06;100816.56;487346;28;843;-64
2021/04/10 01:01:23;;;;;;;2.47;1.20;;;;;;;17.23;51.22;100812.19;488678;28;865;-64
2021/04/10 01:01:38;;;;;;;2.57;1.23;;;;;;;17.23;51.21;100809.47;489102;28;1215;-64
2021/04/10 01:01:52;;;;;;;2.90;1.30;;;;;;;17.22;51.36;100805.09;489313;28;920;-65
2021/04/10 01:02:08;;;;;;;2.88;1.38;;;;;;;17.23;51.28;100812.19;489194;28;953;-64
2021/04/10 01:02:23;;;;;;;2.97;1.40;;;;;;;17.21;51.50;100803.41;488020;28;1010;-65
2021/04/10 01:02:37;;;;;;;2.63;1.25;;;;;;;17.23;51.72;100811.34;487176;28;835;-65
2021/04/10 01:02:51;;;;;;;2.37;1.20;;;;;;;17.23;51.62;100814.03;487270;28;958;-63
2021/04/10 01:03:06;;;;;;;2.65;1.27;;;;;;;17.23;51.16;100806.78;489364;28;838;-63
2021/04/10 01:03:21;;;;;;;2.73;1.30;;;;;;;17.25;51.20;100815.56;489509;28;1138;-63
2021/04/10 01:03:37;;;;;;;2.80;1.20;;;;;;;17.24;51.33;100803.03;489635;28;890;-63
2021/04/10 01:03:51;;;;;;;2.42;1.10;;;;;;;17.25;51.41;100807.44;489651;28;968;-62
2021/04/10 01:04:06;;;;;;;2.33;1.10;;;;;;;17.24;51.65;100805.75;489527;28;1914;-62
2021/04/10 01:04:21;;;;;;;2.57;1.10;;;;;;;17.25;51.58;100812.00;489695;28;853;-62
2021/04/10 01:04:35;;;;;;;2.13;1.10;;;;;;;17.24;51.54;100811.16;489412;28;1123;-62
2021/04/10 01:04:50;;;;;;;2.90;1.20;;;;;;;17.24;51.52;100808.44;489553;28;771;-62
2021/04/10 01:05:05;;;;;;;3.83;1.30;;;;;;;17.23;51.34;100806.78;489521;28;1171;-62
2021/04/10 01:05:19;;;;;;;3.10;1.30;;;;;;;17.23;51.48;100803.22;489611;28;910;-63
2021/04/10 01:05:35;;;;;;;2.77;1.20;;;;;;;17.24;51.68;100805.75;489596;28;808;-63
2021/04/10 01:05:49;;;;;;;2.67;1.20;;;;;;;17.25;51.33;100810.13;489584;28;930;-63
2021/04/10 01:06:04;;;;;;;2.60;1.27;;;;;;;17.27;51.29;100809.97;489650;28;881;-63
2021/04/10 01:06:18;;;;;;;4.32;1.30;;;;;;;17.28;51.16;100806.22;489545;28;1047;-63
2021/04/10 01:06:33;;;;;;;4.03;1.30;;;;;;;17.28;51.37;100811.66;489192;28;885;-63
2021/04/10 01:06:47;;;;;;;2.30;1.23;;;;;;;17.26;51.39;100809.13;489496;28;1210;-63
2021/04/10 01:07:02;;;;;;;2.90;1.20;;;;;;;17.26;51.90;100809.13;489202;28;904;-62
2021/04/10 01:07:16;;;;;;;4.15;1.25;;;;;;;17.27;51.42;100807.25;489586;28;934;-63
2021/04/10 01:07:31;;;;;;;3.73;1.30;;;;;;;17.28;51.16;100807.06;489675;28;894;-63
2021/04/10 01:07:45;;;;;;;2.78;1.20;;;;;;;17.28;51.51;100804.38;489610;28;886;-63
2021/04/10 01:08:00;;;;;;;3.50;1.10;;;;;;;17.28;51.33;100808.94;489645;28;838;-63
2021/04/10 01:08:14;;;;;;;4.05;1.10;;;;;;;17.27;51.78;100804.56;489576;28;827;-64
2021/04/10 01:08:30;;;;;;;2.90;1.10;;;;;;;17.28;51.32;100804.38;489349;28;1250;-65
2021/04/10 01:08:44;;;;;;;1.80;1.20;;;;;;;17.28;51.83;100811.66;489539;28;968;-65
2021/04/10 01:08:59;;;;;;;2.00;1.10;;;;;;;17.26;51.57;100803.72;489730;28;862;-65
2021/04/10 01:09:13;;;;;;;2.10;1.02;;;;;;;17.28;51.66;100811.66;489652;28;905;-65
2021/04/10 01:09:28;;;;;;;2.22;1.17;;;;;;;17.27;51.76;100807.25;489522;28;1048;-65
2021/04/10 01:09:48;;;;;;;2.40;1.23;;;;;;;17.27;51.58;100799.13;489262;28;941;-65
2021/04/10 01:10:02;;;;;;;2.13;1.13;;;;;;;17.26;51.68;100802.88;487458;28;65493;-65
2021/04/10 01:10:17;;;;;;;2.58;1.13;;;;;;;17.27;51.56;100808.09;489349;28;1306;-65
2021/04/10 01:10:32;;;;;;;2.97;1.27;;;;;;;17.26;51.41;100806.41;489555;28;1001;-65
2021/04/10 01:10:46;;;;;;;2.95;1.30;;;;;;;17.27;51.50;100807.25;489624;28;902;-65
2021/04/10 01:11:11;;;;;;;3.20;1.20;;;;;;;17.27;51.89;100813.50;489732;28;1025;-65
2021/04/10 01:11:37;;;;;;;3.50;1.15;;;;;;;17.27;51.51;100805.41;487425;28;64263;-63